Time;durP1;ratioP1;P1;durP2;ratioP2;P2;SDS_P1;SDS_P2;PMS_P1;PMS_P2;Temp;Humidity;BMP_temperature;BMP_pressure;BME280_temperature;BME280_humidity;BME280_pressure;Samples;Min_cycle;Max_cycle;Signal;HPM_P1;HPM_P2
2022/07/07 00:01:22;;;;;;;7.45;3.92;;;;;;;19.31;77.49;101122.50;8263284;28;20800;-62
2022/07/07 00:05:22;;;;;;;6.97;3.77;;;;;;;19.35;77.01;101112.88;8259156;28;20034;-62
2022/07/07 00:09:23;;;;;;;6.55;3.28;;;;;;;19.34;76.93;101106.53;8259206;28;20258;-62
2022/07/07 00:13:23;;;;;;;4.70;3.38;;;;;;;19.33;77.23;101095.72;8259892;28;20618;-62
2022/07/07 00:17:23;;;;;;;12.13;3.93;;;;;;;19.26;77.80;101100.22;8259179;28;20113;-62
2022/07/07 00:21:24;;;;;;;9.13;4.72;;;;;;;19.25;78.20;101085.63;8253317;28;20340;-62
2022/07/07 00:25:24;;;;;;;8.35;3.50;;;;;;;19.21;78.24;101087.06;8250336;28;20046;-62
2022/07/07 00:29:24;;;;;;;7.23;4.03;;;;;;;19.13;78.92;101098.06;8256225;28;20282;-62
2022/07/07 00:33:25;;;;;;;9.20;4.22;;;;;;;19.17;79.21;101076.63;8265113;28;20277;-62
2022/07/07 00:37:25;;;;;;;5.63;3.90;;;;;;;19.18;79.16;101084.69;8266869;28;20034;-62
2022/07/07 00:41:26;;;;;;;9.18;4.13;;;;;;;19.13;79.85;101075.31;8260950;28;20501;-62
2022/07/07 00:45:26;;;;;;;5.13;4.25;;;;;;;19.11;80.01;101083.72;8262560;28;20046;-62
2022/07/07 00:49:27;;;;;;;9.98;4.47;;;;;;;19.12;80.36;101084.56;8262360;28;20078;-62
2022/07/07 00:53:27;;;;;;;8.85;4.35;;;;;;;19.15;80.33;101068.59;8255605;28;20092;-62
2022/07/07 00:57:29;;;;;;;6.63;4.40;;;;;;;19.12;80.35;101063.47;8261809;28;20048;-62
2022/07/07 01:01:30;;;;;;;7.28;4.30;;;;;;;19.12;80.63;101048.94;8261589;28;20058;-62
2022/07/07 01:05:32;;;;;;;9.77;4.70;;;;;;;19.13;80.89;101045.97;8261789;28;20392;-63
2022/07/07 01:09:34;;;;;;;12.02;4.13;;;;;;;19.14;81.09;101023.03;8261369;28;20515;-63
2022/07/07 01:13:34;;;;;;;7.85;3.45;;;;;;;19.22;81.00;101031.16;8260901;28;20038;-63
2022/07/07 01:17:35;;;;;;;10.73;4.15;;;;;;;19.23;81.23;101027.41;8261235;28;20483;-63
2022/07/07 01:21:47;;;;;;;10.50;3.70;;;;;;;19.28;81.30;101029.63;8265609;28;20049;-63
2022/07/07 01:25:47;;;;;;;5.45;3.78;;;;;;;19.21;81.27;101013.03;8264942;28;20042;-63
2022/07/07 01:29:50;;;;;;;6.53;3.83;;;;;;;19.18;81.36;101018.88;8260252;28;20046;-63
2022/07/07 01:33:50;;;;;;;9.63;4.00;;;;;;;19.17;81.28;101017.19;8260798;28;20298;-63
2022/07/07 01:37:51;;;;;;;6.43;3.90;;;;;;;19.17;81.16;101022.66;8261148;28;20218;-63
2022/07/07 01:41:51;;;;;;;8.73;4.23;;;;;;;19.23;80.92;101013.72;8257759;28;20778;-63
2022/07/07 01:45:51;;;;;;;10.00;4.07;;;;;;;19.25;80.86;101003.38;8260561;28;20285;-63
2022/07/07 01:49:52;;;;;;;8.60;4.50;;;;;;;19.24;82.28;101009.06;8261158;28;20733;-63
2022/07/07 01:53:52;;;;;;;10.10;4.60;;;;;;;19.13;82.86;101004.84;8263922;28;20332;-63
2022/07/07 01:57:53;;;;;;;9.40;4.13;;;;;;;19.14;82.80;100995.63;8260314;28;20115;-63
2022/07/07 02:01:53;;;;;;;9.90;4.70;;;;;;;19.14;83.35;100978.31;8259314;28;20269;-63
2022/07/07 02:05:53;;;;;;;7.75;5.13;;;;;;;19.11;82.98;100990.50;8260066;28;20274;-63
2022/07/07 02:09:54;;;;;;;7.83;4.40;;;;;;;19.17;82.64;100975.19;8262107;28;20065;-63
2022/07/07 02:13:54;;;;;;;6.00;4.10;;;;;;;19.21;82.94;100971.91;8260093;28;20951;-63
2022/07/07 02:17:54;;;;;;;9.35;4.38;;;;;;;19.20;83.14;100966.59;8259553;28;20274;-63
2022/07/07 02:21:55;;;;;;;6.20;3.87;;;;;;;19.20;82.95;100956.50;8258858;28;20477;-63
2022/07/07 02:25:55;;;;;;;9.98;4.15;;;;;;;19.20;83.50;100961.13;8241403;28;20038;-63
2022/07/07 02:29:56;;;;;;;7.40;3.83;;;;;;;19.28;83.28;100959.19;8224073;28;20039;-63
2022/07/07 02:33:56;;;;;;;5.95;3.35;;;;;;;19.29;82.93;100954.56;8226945;28;20051;-63
2022/07/07 02:37:57;;;;;;;7.10;3.88;;;;;;;19.31;83.12;100947.84;8238254;28;20542;-63
2022/07/07 02:41:57;;;;;;;9.93;3.70;;;;;;;19.38;82.71;100947.97;8255903;28;20126;-63
2022/07/07 02:45:58;;;;;;;4.30;3.88;;;;;;;19.41;82.94;100947.59;8259655;28;20072;-63
2022/07/07 02:49:58;;;;;;;5.90;3.42;;;;;;;19.38;83.24;100937.84;8259142;28;20034;-63
2022/07/07 02:53:58;;;;;;;7.20;3.40;;;;;;;19.38;83.41;100943.34;8262502;28;20486;-63
2022/07/07 02:58:00;;;;;;;8.57;3.70;;;;;;;19.38;83.73;100948.81;8265955;28;20274;-63
2022/07/07 03:02:01;;;;;;;4.90;3.50;;;;;;;19.39;83.83;100945.03;8268968;28;20290;-63
2022/07/07 03:06:03;;;;;;;5.03;3.08;;;;;;;19.48;83.85;100948.53;8270858;28;20096;-63
2022/07/07 03:10:05;;;;;;;4.95;3.50;;;;;;;19.48;84.05;100938.41;8265491;28;20490;-63
2022/07/07 03:14:05;;;;;;;7.22;3.28;;;;;;;19.49;84.24;100951.09;8265832;28;20045;-63
2022/07/07 03:18:06;;;;;;;7.32;3.25;;;;;;;19.52;84.12;100949.03;8265570;28;20073;-63
2022/07/07 03:22:06;;;;;;;11.48;3.25;;;;;;;19.52;84.38;100935.31;8269675;28;20042;-63
2022/07/07 03:26:07;;;;;;;4.77;2.90;;;;;;;19.52;84.37;100949.88;8265401;28;20037;-63
2022/07/07 03:30:09;;;;;;;6.53;3.20;;;;;;;19.52;84.57;100950.72;8262411;28;20337;-63
2022/07/07 03:34:10;;;;;;;5.90;2.83;;;;;;;19.52;84.98;100943.53;8263989;28;20089;-63
2022/07/07 03:38:10;;;;;;;4.93;2.92;;;;;;;19.52;85.01;100938.03;8265376;28;20038;-63
2022/07/07 03:42:10;;;;;;;6.63;2.60;;;;;;;19.53;85.42;100946.09;8264013;28;20451;-63
2022/07/07 03:46:11;;;;;;;15.67;3.43;;;;;;;19.52;85.67;100943.53;8264832;28;20333;-63
2022/07/07 03:50:11;;;;;;;5.65;2.75;;;;;;;19.52;86.33;100935.31;8270667;28;20269;-63
2022/07/07 03:54:12;;;;;;;7.05;2.03;;;;;;;19.48;86.62;100943.03;8267129;28;20113;-63
2022/07/07 03:58:13;;;;;;;5.80;2.60;;;;;;;19.49;86.78;100933.81;8264042;28;20038;-63
2022/07/07 04:02:13;;;;;;;6.20;2.20;;;;;;;19.49;86.98;100939.28;8260881;28;20494;-63
2022/07/07 04:06:14;;;;;;;4.90;2.20;;;;;;;19.49;87.44;100940.13;8258017;28;20113;-63
2022/07/07 04:10:15;;;;;;;4.83;2.60;;;;;;;19.45;88.61;100932.44;8272329;28;20502;-63
2022/07/07 04:14:15;;;;;;;6.25;2.58;;;;;;;19.44;88.28;100928.88;8263232;28;20300;-63
2022/07/07 04:18:16;;;;;;;5.80;2.97;;;;;;;19.29;90.61;100919.78;8257220;28;20035;-63
2022/07/07 04:22:16;;;;;;;5.95;2.65;;;;;;;19.21;91.46;100913.47;8266566;28;20278;-63
2022/07/07 04:26:16;;;;;;;7.72;2.58;;;;;;;19.20;92.48;100915.38;8262632;28;20121;-63
2022/07/07 04:30:17;;;;;;;4.13;2.50;;;;;;;19.19;92.50;100907.34;8255376;28;20049;-63
2022/07/07 04:34:17;;;;;;;4.30;2.70;;;;;;;19.16;92.79;100911.28;8254606;28;20269;-62
2022/07/07 04:38:18;;;;;;;3.70;2.55;;;;;;;19.13;92.96;100911.66;8259161;28;20341;-62
2022/07/07 04:42:18;;;;;;;6.22;2.85;;;;;;;19.13;93.18;100900.69;8264569;28;20125;-62
2022/07/07 04:46:18;;;;;;;5.83;2.27;;;;;;;19.12;93.38;100893.50;8259540;28;20410;-63
2022/07/07 04:50:19;;;;;;;5.97;3.47;;;;;;;19.08;93.85;100902.28;8258902;28;20277;-63
2022/07/07 04:54:19;;;;;;;9.98;2.97;;;;;;;19.08;94.11;100897.69;8259439;28;20113;-63
2022/07/07 04:58:19;;;;;;;3.97;2.67;;;;;;;19.10;93.42;100892.00;8258313;28;20118;-63
2022/07/07 05:02:20;;;;;;;8.87;3.27;;;;;;;19.11;93.48;100899.19;8258603;28;20274;-63
2022/07/07 05:06:20;;;;;;;11.00;3.10;;;;;;;19.13;93.16;100892.47;8272922;28;20278;-63
2022/07/07 05:10:21;;;;;;;4.35;2.92;;;;;;;19.17;93.33;100893.81;8257905;28;20434;-63
2022/07/07 05:14:21;;;;;;;5.82;3.30;;;;;;;19.21;92.96;100889.66;8258437;28;20138;-63
2022/07/07 05:18:22;;;;;;;7.20;2.70;;;;;;;19.21;92.45;100886.06;8253316;28;20046;-63
2022/07/07 05:22:23;;;;;;;5.95;2.75;;;;;;;19.30;92.41;100890.44;8267852;28;20317;-63
2022/07/07 05:26:23;;;;;;;8.93;3.13;;;;;;;19.33;92.55;100884.59;8257791;28;20045;-63
2022/07/07 05:30:23;;;;;;;7.43;3.50;;;;;;;19.39;92.46;100883.84;8264192;28;20026;-63
2022/07/07 05:34:24;;;;;;;12.55;3.60;;;;;;;19.42;92.74;100883.47;8254466;28;21190;-63
2022/07/07 05:38:24;;;;;;;18.10;4.53;;;;;;;19.45;92.68;100886.69;8252185;28;20144;-63
2022/07/07 05:42:25;;;;;;;8.10;3.30;;;;;;;19.48;92.47;100889.06;8248845;28;20133;-63
2022/07/07 05:46:25;;;;;;;4.90;3.13;;;;;;;19.52;92.20;100895.84;8249233;28;20650;-63
2022/07/07 05:50:25;;;;;;;8.40;3.25;;;;;;;19.56;92.35;100900.97;8242376;28;20039;-63
2022/07/07 05:54:26;;;;;;;6.72;3.03;;;;;;;19.40;94.50;100911.06;8247859;28;20564;-63
2022/07/07 05:58:26;;;;;;;9.70;3.47;;;;;;;18.95;100.00;100919.38;8248936;28;20046;-63
2022/07/07 06:02:26;;;;;;;8.88;4.60;;;;;;;18.53;100.00;100919.03;8252038;28;20057;-63
2022/07/07 06:06:27;;;;;;;8.50;5.70;;;;;;;18.16;100.00;100920.78;8252212;28;20046;-63
2022/07/07 06:10:27;;;;;;;12.98;6.40;;;;;;;17.98;100.00;100934.72;8252413;28;20038;-63
2022/07/07 06:14:28;;;;;;;12.85;6.55;;;;;;;17.85;100.00;100961.81;8253207;28;20066;-64
2022/07/07 06:18:28;;;;;;;9.38;6.60;;;;;;;17.84;100.00;100959.25;8252833;28;20064;-64
2022/07/07 06:22:29;;;;;;;9.07;5.13;;;;;;;17.71;100.00;100959.78;8256345;28;20109;-64
2022/07/07 06:26:29;;;;;;;7.18;3.80;;;;;;;17.63;100.00;100962.56;8258258;28;20269;-64
2022/07/07 06:30:30;;;;;;;6.40;3.80;;;;;;;17.71;100.00;100962.53;8250905;28;20081;-64
2022/07/07 06:34:30;;;;;;;5.97;4.13;;;;;;;17.89;100.00;100956.81;8251935;28;20038;-64
2022/07/07 06:38:31;;;;;;;8.10;3.85;;;;;;;17.92;100.00;100957.31;8255429;28;20528;-64
2022/07/07 06:42:31;;;;;;;8.23;4.22;;;;;;;18.08;100.00;100959.97;8258149;28;20499;-64
2022/07/07 06:46:32;;;;;;;5.18;4.65;;;;;;;18.36;100.00;100966.66;8261254;28;20058;-64
2022/07/07 06:50:33;;;;;;;3.70;3.30;;;;;;;18.79;100.00;100966.06;8254781;28;20042;-64
2022/07/07 06:54:33;;;;;;;4.15;3.78;;;;;;;18.85;100.00;100973.56;8251746;28;20554;-64
2022/07/07 06:58:33;;;;;;;5.88;3.38;;;;;;;18.62;100.00;100972.72;8253626;28;20046;-64
2022/07/07 07:02:41;;;;;;;4.30;3.90;;;;;;;18.49;100.00;100991.63;8250319;28;20535;-63
2022/07/07 07:06:42;;;;;;;8.90;5.28;;;;;;;18.15;100.00;100995.72;8249847;28;20288;-64
2022/07/07 07:10:42;;;;;;;7.93;4.85;;;;;;;18.03;100.00;101003.47;8246052;28;20526;-64
2022/07/07 07:14:43;;;;;;;6.27;3.00;;;;;;;18.04;100.00;100994.22;8250846;28;20391;-64
2022/07/07 07:18:44;;;;;;;7.82;3.60;;;;;;;18.36;100.00;101005.00;8252214;28;20335;-64
2022/07/07 07:22:45;;;;;;;5.28;2.78;;;;;;;18.56;100.00;100999.97;8256713;28;20122;-64
2022/07/07 07:26:45;;;;;;;3.93;2.30;;;;;;;18.85;100.00;101017.41;8251762;28;20046;-64
2022/07/07 07:30:45;;;;;;;2.33;1.95;;;;;;;18.89;100.00;101002.34;8251834;28;20771;-64
2022/07/07 07:34:46;;;;;;;3.10;1.55;;;;;;;18.85;100.00;101017.41;8260062;28;20034;-64
2022/07/07 07:38:48;;;;;;;1.98;1.67;;;;;;;19.09;100.00;101014.50;8249326;28;20038;-64
2022/07/07 07:42:48;;;;;;;2.97;1.65;;;;;;;19.39;100.00;101010.84;8252867;28;20109;-64
2022/07/07 07:46:48;;;;;;;2.33;1.37;;;;;;;19.45;100.00;101025.69;8256341;28;20042;-64
2022/07/07 07:50:49;;;;;;;5.60;1.80;;;;;;;19.50;100.00;101020.53;8256636;28;20280;-64
2022/07/07 07:54:50;;;;;;;5.93;1.70;;;;;;;19.29;100.00;101034.94;8257510;28;20070;-64
2022/07/07 07:58:50;;;;;;;1.73;1.30;;;;;;;19.06;100.00;101042.28;8257005;28;20052;-63
2022/07/07 08:02:51;;;;;;;4.30;1.35;;;;;;;19.19;100.00;101041.69;8257108;28;20119;-63
2022/07/07 08:06:51;;;;;;;4.65;1.30;;;;;;;19.05;100.00;101039.72;8265021;28;20446;-63
2022/07/07 08:10:52;;;;;;;1.65;1.05;;;;;;;18.75;97.84;101049.69;8258076;28;20046;-63
2022/07/07 08:14:52;;;;;;;2.08;0.60;;;;;;;18.68;95.39;101053.31;8265166;28;20054;-63
2022/07/07 08:18:53;;;;;;;2.25;0.68;;;;;;;18.98;93.04;101066.16;8266338;28;20561;-63
2022/07/07 08:22:53;;;;;;;2.35;1.08;;;;;;;19.43;89.58;101063.44;8265075;28;20054;-63
2022/07/07 08:26:53;;;;;;;2.75;0.70;;;;;;;19.41;89.42;101065.50;8263533;28;20450;-63
2022/07/07 08:30:54;;;;;;;2.47;0.73;;;;;;;19.51;89.72;101060.63;8260743;28;20035;-63
2022/07/07 08:34:54;;;;;;;1.95;0.70;;;;;;;19.47;87.31;101062.03;8264858;28;20034;-63
2022/07/07 08:38:54;;;;;;;4.47;0.80;;;;;;;19.49;88.81;101076.44;8259769;28;20410;-63
2022/07/07 08:42:55;;;;;;;9.10;1.33;;;;;;;19.55;90.75;101080.31;8259917;28;20300;-63
2022/07/07 08:46:55;;;;;;;4.40;0.80;;;;;;;20.21;84.42;101072.09;8258037;28;20412;-63
2022/07/07 08:50:58;;;;;;;3.78;0.80;;;;;;;19.71;86.09;101069.19;8257139;28;20088;-63
2022/07/07 08:55:01;;;;;;;5.78;0.82;;;;;;;19.29;88.38;101092.53;8258558;28;20045;-63
2022/07/07 08:59:02;;;;;;;4.30;1.10;;;;;;;18.92;90.95;101108.84;8258730;28;20102;-63
2022/07/07 09:03:05;;;;;;;4.93;1.00;;;;;;;18.14;97.75;101125.38;8257645;28;20562;-63
2022/07/07 09:07:06;;;;;;;5.50;1.30;;;;;;;17.68;100.00;101124.22;8255978;28;20097;-63
2022/07/07 09:11:09;;;;;;;5.05;1.08;;;;;;;17.66;100.00;101131.78;8256120;28;20038;-63
2022/07/07 09:15:10;;;;;;;6.15;1.50;;;;;;;18.06;100.00;101130.88;8262977;28;20137;-63
2022/07/07 09:19:20;;;;;;;4.55;1.30;;;;;;;18.54;100.00;101134.34;8255762;28;20038;-64
2022/07/07 09:23:20;;;;;;;5.43;1.38;;;;;;;19.25;98.78;101140.47;8245834;28;20376;-63
2022/07/07 09:27:21;;;;;;;7.38;1.35;;;;;;;19.66;90.59;101137.47;8253124;28;20034;-63
2022/07/07 09:31:21;;;;;;;4.38;0.80;;;;;;;20.38;87.78;101145.06;8253610;28;20034;-63
2022/07/07 09:39:46;;;;;;;4.20;0.80;;;;;;;21.08;79.71;101160.00;8254727;28;20060;-63
2022/07/07 09:43:51;;;;;;;4.93;0.65;;;;;;;20.49;80.81;101158.34;8264578;28;20459;-63
2022/07/07 09:47:51;;;;;;;3.63;0.70;;;;;;;20.35;80.06;101170.16;8259294;28;20112;-63
2022/07/07 09:51:52;;;;;;;3.75;0.65;;;;;;;20.22;81.06;101167.19;8258918;28;20104;-63
2022/07/07 09:56:01;;;;;;;4.35;0.93;;;;;;;20.45;80.21;101170.72;8259118;28;20038;-63
2022/07/07 10:00:02;;;;;;;7.53;0.98;;;;;;;20.85;78.19;101176.59;8253871;28;20037;-63
2022/07/07 10:04:07;;;;;;;3.58;0.70;;;;;;;21.29;76.15;101169.13;8259786;28;20046;-63
2022/07/07 10:08:08;;;;;;;2.75;0.60;;;;;;;21.46;77.44;101175.25;8258194;28;20046;-63
2022/07/07 10:12:09;;;;;;;3.83;0.80;;;;;;;21.43;76.38;101172.06;8255557;28;20042;-63
2022/07/07 10:16:10;;;;;;;1.98;0.60;;;;;;;21.42;74.05;101182.22;8260751;28;20038;-63
2022/07/07 10:20:11;;;;;;;5.95;1.05;;;;;;;21.02;76.06;101193.78;8256081;28;20049;-61
2022/07/07 10:24:15;;;;;;;7.93;0.60;;;;;;;20.68;76.65;101196.22;8252962;28;20054;-61
2022/07/07 10:28:17;;;;;;;2.28;0.63;;;;;;;20.80;77.49;101191.97;8255111;28;20042;-62
2022/07/07 10:41:02;;;;;;;3.42;0.60;;;;;;;21.48;72.38;101210.84;8306355;27;20372;-61
2022/07/07 10:45:03;;;;;;;4.72;0.52;;;;;;;20.81;76.65;101218.41;8276561;28;20476;-62
2022/07/07 10:49:09;;;;;;;4.10;0.70;;;;;;;20.46;78.12;101216.41;8277123;28;20418;-58
2022/07/07 10:53:30;;;;;;;5.30;0.73;;;;;;;20.12;81.24;101216.88;8281718;28;20039;-61
2022/07/07 10:57:47;;;;;;;5.00;0.68;;;;;;;19.86;81.79;101240.22;8278177;28;20034;-61
2022/07/07 11:06:15;;;;;;;3.95;0.68;;;;;;;21.62;73.64;101242.97;8317759;27;20391;-61
2022/07/07 11:10:15;;;;;;;3.00;0.88;;;;;;;20.98;75.85;101252.97;8314770;28;20041;-61
2022/07/07 11:14:16;;;;;;;1.70;0.60;;;;;;;20.57;78.62;101255.25;8314874;28;20051;-61
2022/07/07 11:18:18;;;;;;;5.33;0.80;;;;;;;20.46;79.67;101257.63;8313937;28;20449;-61
2022/07/07 11:22:18;;;;;;;5.20;0.98;;;;;;;20.18;78.91;101264.72;8315116;28;20264;-61
2022/07/07 11:26:23;;;;;;;4.45;0.70;;;;;;;19.95;79.82;101274.81;8315404;28;20152;-61
2022/07/07 11:30:24;;;;;;;3.25;0.75;;;;;;;19.76;81.06;101276.13;8315095;28;20045;-61
2022/07/07 11:34:24;;;;;;;3.78;0.73;;;;;;;19.81;81.83;101283.84;8314512;28;20046;-61
2022/07/07 11:38:28;;;;;;;3.13;0.80;;;;;;;20.23;79.83;101274.13;8314624;28;20545;-61
2022/07/07 11:42:36;;;;;;;4.95;0.60;;;;;;;20.81;77.40;101268.75;8313884;28;20045;-61
2022/07/07 11:46:37;;;;;;;2.88;0.60;;;;;;;21.37;73.86;101258.97;8311034;28;20042;-61
2022/07/07 11:50:38;;;;;;;5.90;0.70;;;;;;;21.42;74.05;101270.25;8312266;28;20033;-61
2022/07/07 11:54:47;;;;;;;1.80;0.50;;;;;;;21.81;72.01;101273.53;8313216;28;20065;-62
2022/07/07 11:58:56;;;;;;;5.95;1.05;;;;;;;21.61;72.24;101277.91;8308568;28;20037;-60
2022/07/07 12:03:00;;;;;;;12.85;0.90;;;;;;;21.54;73.61;101288.00;8311635;28;20450;-62
2022/07/07 12:07:01;;;;;;;1.77;0.57;;;;;;;21.45;74.92;101282.78;8310798;28;20037;-61
2022/07/07 12:11:03;;;;;;;6.60;0.90;;;;;;;21.60;74.67;101292.72;8307477;28;20048;-61
2022/07/07 12:15:07;;;;;;;11.65;0.85;;;;;;;21.67;74.63;101304.66;8303638;28;20056;-62
2022/07/07 12:19:07;;;;;;;6.70;0.80;;;;;;;21.41;74.26;101304.34;8283358;28;20045;-61
2022/07/07 12:23:09;;;;;;;3.60;1.03;;;;;;;21.44;71.87;101312.22;8288701;28;20569;-61
2022/07/07 12:27:18;;;;;;;5.35;0.80;;;;;;;21.55;74.41;101317.22;8288791;28;20838;-61
2022/07/07 12:31:22;;;;;;;2.53;0.70;;;;;;;21.75;72.48;101312.84;8289731;28;20038;-61
2022/07/07 12:35:39;;;;;;;5.63;0.68;;;;;;;21.39;73.35;101333.94;8288815;28;20410;-61
2022/07/07 12:39:42;;;;;;;6.45;1.20;;;;;;;20.80;76.06;101343.16;8288753;28;20402;-61
2022/07/07 12:43:43;;;;;;;3.83;0.80;;;;;;;20.18;79.41;101338.84;8288984;28;20504;-61
2022/07/07 12:47:46;;;;;;;7.57;0.70;;;;;;;19.70;82.78;101353.69;8288941;28;20066;-61
2022/07/07 12:51:48;;;;;;;2.80;0.77;;;;;;;19.51;85.39;101348.66;8287445;28;20045;-61
2022/07/07 12:55:49;;;;;;;4.85;0.77;;;;;;;19.79;86.31;101349.03;8285217;28;20088;-61
2022/07/07 12:59:49;;;;;;;4.90;0.83;;;;;;;20.17;83.54;101350.88;8282342;28;20049;-61
2022/07/07 13:03:52;;;;;;;6.87;0.70;;;;;;;20.51;81.25;101360.41;8281804;28;20284;-61
2022/07/07 13:07:52;;;;;;;4.47;0.70;;;;;;;20.86;81.47;101358.91;8284531;28;20768;-61
2022/07/07 13:11:53;;;;;;;2.40;0.60;;;;;;;20.55;81.26;101361.75;8283943;28;20441;-61
2022/07/07 13:15:53;;;;;;;3.70;1.00;;;;;;;20.53;82.06;101374.84;8282818;28;20056;-61
2022/07/07 13:19:54;;;;;;;3.38;0.70;;;;;;;20.24;82.87;101368.34;8284996;28;20476;-61
2022/07/07 13:23:54;;;;;;;3.87;0.70;;;;;;;20.00;83.33;101382.22;8284296;28;20173;-61
2022/07/07 13:27:55;;;;;;;6.28;1.10;;;;;;;19.83;84.90;101386.06;8282872;28;21086;-61
2022/07/07 13:31:55;;;;;;;2.88;0.90;;;;;;;19.58;85.55;101388.06;8283770;28;20042;-61
2022/07/07 13:35:57;;;;;;;3.83;0.75;;;;;;;19.64;86.36;101386.50;8281992;28;20044;-61
2022/07/07 13:39:57;;;;;;;6.18;1.20;;;;;;;20.05;84.95;101397.09;8283794;28;20535;-61
2022/07/07 13:43:58;;;;;;;4.10;0.70;;;;;;;20.49;83.30;101395.44;8281249;28;20102;-61
2022/07/07 13:47:59;;;;;;;3.63;0.85;;;;;;;21.10;81.76;101386.16;8284100;28;20042;-61
2022/07/07 13:51:59;;;;;;;2.92;0.68;;;;;;;21.46;78.92;101384.41;8279579;28;20410;-61
2022/07/07 13:55:59;;;;;;;7.40;1.27;;;;;;;21.40;78.38;101385.16;8282737;28;20084;-61
2022/07/07 14:00:00;;;;;;;3.10;0.60;;;;;;;21.10;81.10;101395.28;8285169;28;20041;-61
2022/07/07 14:04:01;;;;;;;4.53;0.90;;;;;;;20.38;83.88;101408.75;8282129;28;20301;-61
2022/07/07 14:08:01;;;;;;;3.85;0.88;;;;;;;19.92;85.95;101393.22;8283194;28;20586;-61
2022/07/07 14:12:02;;;;;;;7.82;0.90;;;;;;;19.85;88.08;101405.97;8277201;28;20076;-59
2022/07/07 14:16:03;;;;;;;2.10;0.70;;;;;;;20.00;85.76;101420.66;8284412;28;20165;-61
2022/07/07 14:20:05;;;;;;;5.05;1.27;;;;;;;20.39;85.00;101418.69;8282146;28;20030;-61
2022/07/07 14:24:06;;;;;;;3.38;0.90;;;;;;;20.61;83.80;101420.59;8282618;28;21113;-60
2022/07/07 14:28:06;;;;;;;3.33;1.05;;;;;;;20.47;85.66;101418.66;8282247;28;20410;-61
2022/07/07 14:32:07;;;;;;;4.28;1.40;;;;;;;20.57;84.10;101424.75;8281863;28;20033;-61
2022/07/07 14:36:07;;;;;;;3.97;1.17;;;;;;;20.74;84.18;101429.09;8283784;28;20483;-61
2022/07/07 14:40:08;;;;;;;3.15;0.85;;;;;;;20.78;81.94;101425.81;8286846;28;20103;-61
2022/07/07 14:44:08;;;;;;;2.35;0.80;;;;;;;20.73;82.34;101424.63;8276266;28;20048;-61
2022/07/07 14:48:09;;;;;;;2.45;0.95;;;;;;;21.16;80.39;101413.78;8284389;28;20038;-60
2022/07/07 14:52:10;;;;;;;1.50;0.68;;;;;;;21.52;81.21;101411.16;8274798;28;20040;-61
2022/07/07 14:56:10;;;;;;;2.92;0.82;;;;;;;21.74;79.20;101410.22;8287449;28;20030;-57
2022/07/07 15:00:11;;;;;;;2.93;0.87;;;;;;;21.66;80.21;101406.69;8285313;28;20057;-60
2022/07/07 15:04:12;;;;;;;1.33;0.50;;;;;;;21.42;79.40;101420.75;8287834;28;20269;-60
2022/07/07 15:08:12;;;;;;;3.97;1.02;;;;;;;21.21;81.35;101424.22;8287746;28;20050;-60
2022/07/07 15:12:12;;;;;;;6.40;1.25;;;;;;;21.07;79.34;101422.28;8286554;28;20038;-60
2022/07/07 15:16:13;;;;;;;8.75;1.52;;;;;;;21.52;79.43;101416.66;8280582;28;20042;-60
2022/07/07 15:20:14;;;;;;;2.28;1.02;;;;;;;22.20;77.66;101419.94;8284476;28;20038;-60
2022/07/07 15:24:15;;;;;;;2.45;1.00;;;;;;;22.20;75.13;101428.19;8287379;28;20073;-60
2022/07/07 15:28:16;;;;;;;7.20;1.40;;;;;;;22.18;75.32;101418.44;8280976;28;20062;-60
2022/07/07 15:32:16;;;;;;;5.70;1.40;;;;;;;21.98;74.74;101423.69;8286496;28;20030;-60
2022/07/07 15:36:17;;;;;;;4.83;1.20;;;;;;;21.94;77.15;101425.13;8285908;28;20038;-60
2022/07/07 15:40:17;;;;;;;2.95;1.10;;;;;;;21.99;77.63;101428.13;8280005;28;20038;-60
2022/07/07 15:44:19;;;;;;;5.13;1.67;;;;;;;21.76;75.77;101435.69;8284725;28;20116;-60
2022/07/07 15:48:19;;;;;;;2.38;0.80;;;;;;;21.53;73.49;101437.63;8286168;28;20038;-60
2022/07/07 15:52:20;;;;;;;4.75;1.00;;;;;;;21.55;73.33;101429.19;8297851;28;20061;-60
2022/07/07 15:56:20;;;;;;;2.60;0.80;;;;;;;21.76;72.59;101424.66;8286889;28;20117;-60
2022/07/07 16:00:21;;;;;;;1.75;0.75;;;;;;;22.07;71.48;101444.56;8290237;28;20038;-60
2022/07/07 16:04:37;;;;;;;19.50;1.70;;;;;;;22.32;71.60;101454.22;8292415;28;20046;-60
2022/07/07 16:08:37;;;;;;;8.63;2.05;;;;;;;22.42;70.01;101449.22;8292346;28;20041;-60
2022/07/07 16:12:38;;;;;;;5.70;1.27;;;;;;;22.04;71.45;101458.72;8291481;28;20069;-60
2022/07/07 16:16:39;;;;;;;10.07;1.25;;;;;;;21.62;71.71;101455.75;8287131;28;20280;-60
2022/07/07 16:20:40;;;;;;;12.07;1.70;;;;;;;21.42;73.03;101465.63;8289585;28;20129;-60
2022/07/07 16:24:41;;;;;;;9.68;1.10;;;;;;;21.45;71.73;101459.75;8287907;28;20395;-60
2022/07/07 16:28:42;;;;;;;2.13;0.90;;;;;;;21.72;69.44;101464.63;8288855;28;20117;-60
2022/07/07 16:32:42;;;;;;;8.63;2.05;;;;;;;21.65;67.80;101471.91;8291140;28;20647;-60
2022/07/07 16:36:44;;;;;;;17.40;2.17;;;;;;;21.58;69.58;101464.59;8290058;28;20109;-60
2022/07/07 16:40:45;;;;;;;21.98;2.58;;;;;;;21.55;69.79;101471.34;8284159;28;20045;-60
2022/07/07 16:44:45;;;;;;;18.02;2.67;;;;;;;21.50;69.28;101475.69;8284486;28;20042;-60
2022/07/07 16:48:46;;;;;;;14.13;1.75;;;;;;;21.31;69.10;101496.34;8284779;28;20330;-60
2022/07/07 16:52:46;;;;;;;11.77;1.75;;;;;;;21.01;69.60;101487.16;8280581;28;20030;-60
2022/07/07 16:56:47;;;;;;;19.45;1.67;;;;;;;20.92;66.43;101501.13;8282504;28;20045;-60
2022/07/07 17:00:48;;;;;;;14.40;2.08;;;;;;;20.83;66.11;101504.97;8271286;28;20034;-60
2022/07/07 17:04:49;;;;;;;19.20;2.65;;;;;;;20.86;67.26;101502.69;8281577;28;20501;-60
2022/07/07 17:08:49;;;;;;;10.27;1.73;;;;;;;21.03;66.77;101515.34;8280821;28;20057;-60
2022/07/07 17:12:50;;;;;;;12.35;1.63;;;;;;;20.83;67.17;101513.22;8285783;28;20022;-60
2022/07/07 17:16:50;;;;;;;14.88;2.65;;;;;;;20.62;67.56;101526.75;8288134;28;20033;-60
2022/07/07 17:20:50;;;;;;;12.73;2.00;;;;;;;20.56;67.60;101532.97;8284323;28;20044;-60
2022/07/07 17:24:51;;;;;;;9.70;1.27;;;;;;;20.57;67.24;101529.19;8286722;28;20072;-60
2022/07/07 17:28:51;;;;;;;9.83;1.43;;;;;;;20.58;66.32;101536.38;8289818;28;20149;-60
2022/07/07 17:32:52;;;;;;;9.90;1.88;;;;;;;20.41;66.72;101526.53;8290095;28;20281;-60
2022/07/07 17:36:52;;;;;;;8.52;1.13;;;;;;;20.24;66.45;101539.47;8288674;28;20030;-60
2022/07/07 17:40:54;;;;;;;9.20;1.95;;;;;;;20.02;66.35;101544.84;8289745;28;20084;-60
2022/07/07 17:44:54;;;;;;;9.57;1.35;;;;;;;19.93;66.61;101543.16;8283185;28;20038;-60
2022/07/07 17:48:54;;;;;;;8.10;1.63;;;;;;;19.90;65.96;101551.75;8290271;28;20037;-60
2022/07/07 17:52:55;;;;;;;6.70;1.30;;;;;;;19.76;66.01;101560.72;8283822;28;20038;-60
2022/07/07 17:56:55;;;;;;;6.40;1.00;;;;;;;19.78;65.24;101558.63;8288740;28;20038;-60
2022/07/07 18:00:57;;;;;;;10.80;1.20;;;;;;;19.65;64.64;101566.56;8289061;28;20135;-60
2022/07/07 18:04:57;;;;;;;6.55;1.30;;;;;;;19.65;63.57;101574.78;8289199;28;20073;-60
2022/07/07 18:08:58;;;;;;;6.68;1.17;;;;;;;19.70;62.55;101566.91;8288923;28;20034;-60
2022/07/07 18:12:58;;;;;;;8.50;1.08;;;;;;;19.55;62.78;101568.63;8288673;28;20041;-60
2022/07/07 18:16:59;;;;;;;6.68;1.08;;;;;;;19.37;63.42;101582.53;8289022;28;20034;-60
2022/07/07 18:20:59;;;;;;;8.77;1.27;;;;;;;19.33;64.02;101587.50;8289109;28;20117;-60
2022/07/07 18:24:59;;;;;;;12.27;1.30;;;;;;;19.41;64.49;101597.63;8289556;28;20113;-60
2022/07/07 18:29:00;;;;;;;6.45;1.70;;;;;;;19.36;64.76;101595.38;8287662;28;20041;-60
2022/07/07 18:33:00;;;;;;;8.88;1.83;;;;;;;19.31;65.37;101600.50;8289572;28;20045;-60
2022/07/07 18:37:01;;;;;;;7.78;1.77;;;;;;;19.19;66.32;101612.81;8288891;28;20037;-60
2022/07/07 18:41:01;;;;;;;7.35;1.33;;;;;;;19.08;66.57;101621.38;8287874;28;20038;-60
2022/07/07 18:45:02;;;;;;;7.50;1.52;;;;;;;18.94;67.25;101624.75;8289147;28;20078;-60
2022/07/07 18:49:03;;;;;;;7.30;1.40;;;;;;;18.83;68.24;101627.84;8287369;28;20045;-60
2022/07/07 18:53:03;;;;;;;9.55;1.77;;;;;;;18.79;68.56;101645.59;8280444;28;20022;-60
2022/07/07 18:57:04;;;;;;;10.17;1.90;;;;;;;18.81;68.69;101651.78;8284615;28;20045;-60